createdAt,value
2022-09-23T00:00:55.852Z,1005.93
2022-09-23T00:01:55.925Z,1005.91
2022-09-23T00:02:55.876Z,1005.91
2022-09-23T00:03:55.803Z,1005.90
2022-09-23T00:04:55.790Z,1005.89
2022-09-23T00:05:55.796Z,1005.89
2022-09-23T00:06:55.792Z,1005.93
2022-09-23T00:07:55.748Z,1005.93
2022-09-23T00:08:55.726Z,1005.93
2022-09-23T00:09:55.714Z,1005.90
2022-09-23T00:10:55.694Z,1005.88
2022-09-23T00:11:55.719Z,1005.87
2022-09-23T00:12:55.681Z,1005.89
2022-09-23T00:13:55.654Z,1005.91
2022-09-23T00:14:55.631Z,1005.84
2022-09-23T00:15:55.631Z,1005.88
2022-09-23T00:16:55.663Z,1005.85
2022-09-23T00:17:55.658Z,1005.84
2022-09-23T00:18:55.571Z,1005.84
2022-09-23T00:19:55.571Z,1005.82
2022-09-23T00:20:55.538Z,1005.86
2022-09-23T00:21:55.527Z,1005.85
2022-09-23T00:22:55.525Z,1005.83
2022-09-23T00:23:55.532Z,1005.79
2022-09-23T00:24:55.486Z,1005.79
2022-09-23T00:25:55.487Z,1005.77
2022-09-23T00:26:55.449Z,1005.78
2022-09-23T00:27:55.430Z,1005.74
2022-09-23T00:28:55.581Z,1005.75
2022-09-23T00:29:55.403Z,1005.74
2022-09-23T00:30:55.417Z,1005.77
2022-09-23T00:31:55.373Z,1005.74
2022-09-23T00:32:55.353Z,1005.76
2022-09-23T00:33:55.418Z,1005.77
2022-09-23T00:34:55.345Z,1005.75
2022-09-23T00:35:55.302Z,1005.72
2022-09-23T00:36:55.293Z,1005.71
2022-09-23T00:37:55.287Z,1005.71
2022-09-23T00:38:55.257Z,1005.69
2022-09-23T00:39:55.297Z,1005.68
2022-09-23T00:40:55.226Z,1005.67
2022-09-23T00:41:55.216Z,1005.66
2022-09-23T00:42:55.201Z,1005.68
2022-09-23T00:43:55.179Z,1005.67
2022-09-23T00:44:55.176Z,1005.66
2022-09-23T00:45:55.260Z,1005.66
2022-09-23T00:46:55.129Z,1005.66
2022-09-23T00:47:55.117Z,1005.63
2022-09-23T00:48:55.155Z,1005.64
2022-09-23T00:49:55.090Z,1005.64
2022-09-23T00:50:55.120Z,1005.64
2022-09-23T00:51:55.052Z,1005.58
2022-09-23T00:52:55.042Z,1005.64
2022-09-23T00:53:55.023Z,1005.59
2022-09-23T00:54:55.011Z,1005.59
2022-09-23T00:55:54.992Z,1005.57
2022-09-23T00:56:55.004Z,1005.55
2022-09-23T00:57:54.963Z,1005.55
2022-09-23T00:58:54.947Z,1005.52
2022-09-23T00:59:54.926Z,1005.54
2022-09-23T01:00:54.965Z,1005.52
2022-09-23T01:01:54.941Z,1005.51
2022-09-23T01:02:55.327Z,1005.53
2022-09-23T01:03:54.866Z,1005.50
2022-09-23T01:04:54.848Z,1005.54
2022-09-23T01:05:54.869Z,1005.51
2022-09-23T01:06:54.847Z,1005.52
2022-09-23T01:07:54.799Z,1005.49
2022-09-23T01:08:54.787Z,1005.49
2022-09-23T01:09:54.778Z,1005.48
2022-09-23T01:10:54.759Z,1005.49
2022-09-23T01:11:54.777Z,1005.50
2022-09-23T01:12:54.719Z,1005.47
2022-09-23T01:13:54.711Z,1005.49
2022-09-23T01:14:54.691Z,1005.48
2022-09-23T01:15:54.673Z,1005.45
2022-09-23T01:16:54.747Z,1005.44
2022-09-23T01:17:54.698Z,1005.44
2022-09-23T01:18:54.626Z,1005.48
2022-09-23T01:19:54.615Z,1005.42
2022-09-23T01:20:54.604Z,1005.41
2022-09-23T01:21:54.580Z,1005.40
2022-09-23T01:22:54.569Z,1005.41
2022-09-23T01:23:54.579Z,1005.38
2022-09-23T01:24:54.537Z,1005.38
2022-09-23T01:25:54.530Z,1005.39
2022-09-23T01:26:54.499Z,1005.36
2022-09-23T01:27:54.488Z,1005.33
2022-09-23T01:28:54.470Z,1005.34
2022-09-23T01:29:54.475Z,1005.35
2022-09-23T01:30:54.491Z,1005.35
2022-09-23T01:31:54.431Z,1005.32
2022-09-23T01:32:54.407Z,1005.31
2022-09-23T01:33:54.391Z,1005.31
2022-09-23T01:34:54.374Z,1005.24
2022-09-23T01:35:54.357Z,1005.25
2022-09-23T01:36:54.345Z,1005.20
2022-09-23T01:37:54.329Z,1005.22
2022-09-23T01:38:54.314Z,1005.24
2022-09-23T01:39:54.454Z,1005.18
2022-09-23T01:40:54.282Z,1005.14
2022-09-23T01:41:54.264Z,1005.20
2022-09-23T01:42:54.248Z,1005.16
2022-09-23T01:43:54.232Z,1005.16
2022-09-23T01:44:54.215Z,1005.15
2022-09-23T01:45:54.220Z,1005.15
2022-09-23T01:46:54.181Z,1005.15
2022-09-23T01:47:54.198Z,1005.14
2022-09-23T01:48:54.164Z,1005.11
2022-09-23T01:49:54.138Z,1005.12
2022-09-23T01:50:54.126Z,1005.10
2022-09-23T01:51:54.109Z,1005.11
2022-09-23T01:52:54.086Z,1005.17
2022-09-23T01:53:54.076Z,1005.10
2022-09-23T01:54:54.058Z,1005.10
2022-09-23T01:55:54.068Z,1005.11
2022-09-23T01:56:54.060Z,1005.13
2022-09-23T01:57:54.010Z,1005.13
2022-09-23T01:58:53.991Z,1005.12
2022-09-23T01:59:53.978Z,1005.11
2022-09-23T02:00:54.032Z,1005.11
2022-09-23T02:01:53.964Z,1005.12
2022-09-23T02:02:53.981Z,1005.14
2022-09-23T02:03:53.914Z,1005.09
2022-09-23T02:04:53.900Z,1005.11
2022-09-23T02:05:53.882Z,1005.13
2022-09-23T02:06:53.867Z,1005.18
2022-09-23T02:07:53.853Z,1005.16
2022-09-23T02:08:53.834Z,1005.15
2022-09-23T02:09:53.815Z,1005.12
2022-09-23T02:10:53.796Z,1005.12
2022-09-23T02:11:53.788Z,1005.16
2022-09-23T02:12:53.764Z,1005.16
2022-09-23T02:13:53.754Z,1005.11
2022-09-23T02:14:53.776Z,1005.14
2022-09-23T02:15:53.724Z,1005.14
2022-09-23T02:16:53.725Z,1005.12
2022-09-23T02:17:53.718Z,1005.10
2022-09-23T02:18:53.677Z,1005.08
2022-09-23T02:19:53.661Z,1005.10
2022-09-23T02:20:53.650Z,1005.08
2022-09-23T02:21:53.624Z,1005.11
2022-09-23T02:22:53.669Z,1005.05
2022-09-23T02:23:53.594Z,1005.08
2022-09-23T02:24:53.581Z,1005.07
2022-09-23T02:25:53.562Z,1005.05
2022-09-23T02:26:53.544Z,1005.06
2022-09-23T02:27:53.530Z,1005.03
2022-09-23T02:28:53.617Z,1005.03
2022-09-23T02:29:53.513Z,1005.01
2022-09-23T02:30:53.478Z,1005.01
2022-09-23T02:31:53.503Z,1005.03
2022-09-23T02:32:53.451Z,1004.99
2022-09-23T02:33:53.443Z,1005.01
2022-09-23T02:34:53.431Z,1004.99
2022-09-23T02:35:53.403Z,1004.96
2022-09-23T02:36:53.388Z,1004.95
2022-09-23T02:37:53.370Z,1004.95
2022-09-23T02:38:53.514Z,1004.91
2022-09-23T02:39:53.342Z,1004.93
2022-09-23T02:40:53.386Z,1004.94
2022-09-23T02:41:53.308Z,1004.93
2022-09-23T02:42:53.291Z,1004.95
2022-09-23T02:43:53.274Z,1004.94
2022-09-23T02:44:53.282Z,1004.90
2022-09-23T02:45:53.281Z,1004.91
2022-09-23T02:46:53.248Z,1004.92
2022-09-23T02:47:53.216Z,1004.93
2022-09-23T02:48:53.213Z,1004.91
2022-09-23T02:49:53.270Z,1004.92
2022-09-23T02:50:53.159Z,1004.93
2022-09-23T02:51:53.151Z,1004.89
2022-09-23T02:52:53.127Z,1004.91
2022-09-23T02:53:53.112Z,1004.91
2022-09-23T02:54:53.096Z,1004.90
2022-09-23T02:55:53.109Z,1004.91
2022-09-23T02:56:53.097Z,1004.90
2022-09-23T02:57:53.050Z,1004.87
2022-09-23T02:58:53.033Z,1004.91
2022-09-23T02:59:53.019Z,1004.85
2022-09-23T03:00:53.100Z,1004.86
2022-09-23T03:01:53.027Z,1004.90
2022-09-23T03:02:52.969Z,1004.88
2022-09-23T03:03:52.959Z,1004.84
2022-09-23T03:04:52.934Z,1004.83
2022-09-23T03:05:52.929Z,1004.83
2022-09-23T03:06:52.933Z,1004.82
2022-09-23T03:07:52.893Z,1004.81
2022-09-23T03:08:52.875Z,1004.79
2022-09-23T03:09:52.863Z,1004.77
2022-09-23T03:10:52.843Z,1004.79
2022-09-23T03:11:52.828Z,1004.78
2022-09-23T03:12:52.811Z,1004.78
2022-09-23T03:13:52.796Z,1004.75
2022-09-23T03:14:52.778Z,1004.73
2022-09-23T03:15:52.977Z,1004.71
2022-09-23T03:16:52.786Z,1004.71
2022-09-23T03:17:52.728Z,1004.70
2022-09-23T03:18:52.722Z,1004.68
2022-09-23T03:19:52.696Z,1004.69
2022-09-23T03:20:52.680Z,1004.75
2022-09-23T03:21:52.702Z,1004.67
2022-09-23T03:22:52.646Z,1004.75
2022-09-23T03:23:52.631Z,1004.64
2022-09-23T03:24:54.122Z,1004.69
2022-09-23T03:25:52.637Z,1004.70
2022-09-23T03:26:52.584Z,1004.68
2022-09-23T03:27:52.565Z,1004.69
2022-09-23T03:28:52.569Z,1004.70
2022-09-23T03:29:52.537Z,1004.68
2022-09-23T03:30:52.519Z,1004.70
2022-09-23T03:31:52.599Z,1004.65
2022-09-23T03:32:52.486Z,1004.64
2022-09-23T03:33:52.470Z,1004.66
2022-09-23T03:34:52.452Z,1004.63
2022-09-23T03:35:52.440Z,1004.57
2022-09-23T03:36:52.466Z,1004.61
2022-09-23T03:37:52.411Z,1004.59
2022-09-23T03:38:52.389Z,1004.61
2022-09-23T03:39:52.375Z,1004.56
2022-09-23T03:40:52.410Z,1004.59
2022-09-23T03:41:52.345Z,1004.54
2022-09-23T03:42:52.338Z,1004.57
2022-09-23T03:43:52.310Z,1004.52
2022-09-23T03:44:52.384Z,1004.56
2022-09-23T03:45:52.334Z,1004.53
2022-09-23T03:46:52.261Z,1004.52
2022-09-23T03:47:52.320Z,1004.53
2022-09-23T03:48:52.226Z,1004.53
2022-09-23T03:49:52.224Z,1004.55
2022-09-23T03:50:52.196Z,1004.49
2022-09-23T03:51:52.179Z,1004.48
2022-09-23T03:52:52.160Z,1004.47
2022-09-23T03:53:52.190Z,1004.43
2022-09-23T03:54:52.205Z,1004.44
2022-09-23T03:55:52.113Z,1004.43
2022-09-23T03:56:52.097Z,1004.41
2022-09-23T03:57:52.098Z,1004.48
2022-09-23T03:58:52.065Z,1004.39
2022-09-23T03:59:52.056Z,1004.44
2022-09-23T04:00:52.132Z,1004.43
2022-09-23T04:01:52.044Z,1004.43
2022-09-23T04:02:52.003Z,1004.44
2022-09-23T04:03:51.983Z,1004.44
2022-09-23T04:04:52.136Z,1004.41
2022-09-23T04:05:51.955Z,1004.40
2022-09-23T04:06:51.938Z,1004.39
2022-09-23T04:07:51.917Z,1004.37
2022-09-23T04:08:51.906Z,1004.35
2022-09-23T04:09:51.886Z,1004.32
2022-09-23T04:10:54.891Z,1004.30
2022-09-23T04:11:51.854Z,1004.26
2022-09-23T04:12:51.859Z,1004.28
2022-09-23T04:13:51.822Z,1004.29
2022-09-23T04:14:51.808Z,1004.21
2022-09-23T04:15:51.797Z,1004.21
2022-09-23T04:16:51.908Z,1004.23
2022-09-23T04:17:51.759Z,1004.22
2022-09-23T04:18:51.742Z,1004.22
2022-09-23T04:19:51.722Z,1004.20
2022-09-23T04:20:51.712Z,1004.17
2022-09-23T04:21:51.693Z,1004.15
2022-09-23T04:22:51.685Z,1004.13
2022-09-23T04:23:51.670Z,1004.17
2022-09-23T04:24:51.644Z,1004.15
2022-09-23T04:25:51.627Z,1004.16
2022-09-23T04:26:51.618Z,1004.10
2022-09-23T04:27:51.600Z,1004.10
2022-09-23T04:28:51.590Z,1004.13
2022-09-23T04:29:51.564Z,1004.11
2022-09-23T04:30:51.547Z,1004.13
2022-09-23T04:31:51.604Z,1004.14
2022-09-23T04:32:51.515Z,1004.08
2022-09-23T04:33:51.524Z,1004.10
2022-09-23T04:34:51.488Z,1004.12
2022-09-23T04:35:51.463Z,1004.12
2022-09-23T04:36:51.448Z,1004.16
2022-09-23T04:37:51.629Z,1004.11
2022-09-23T04:38:51.415Z,1004.08
2022-09-23T04:39:51.399Z,1004.12
2022-09-23T04:40:51.420Z,1004.09
2022-09-23T04:41:51.368Z,1004.11
2022-09-23T04:42:51.357Z,1004.10
2022-09-23T04:43:51.336Z,1004.15
2022-09-23T04:44:51.319Z,1004.11
2022-09-23T04:45:51.301Z,1004.12
2022-09-23T04:46:51.314Z,1004.12
2022-09-23T04:47:51.269Z,1004.09
2022-09-23T04:48:51.256Z,1004.07
2022-09-23T04:49:51.243Z,1004.09
2022-09-23T04:50:51.231Z,1004.10
2022-09-23T04:51:51.205Z,1004.07
2022-09-23T04:52:51.190Z,1004.11
2022-09-23T04:53:51.197Z,1004.08
2022-09-23T04:54:51.189Z,1004.10
2022-09-23T04:55:51.139Z,1004.11
2022-09-23T04:56:51.128Z,1004.08
2022-09-23T04:57:51.103Z,1004.04
2022-09-23T04:58:51.096Z,1004.05
2022-09-23T04:59:51.135Z,1004.06
2022-09-23T05:00:51.140Z,1004.00
2022-09-23T05:01:51.115Z,1004.02
2022-09-23T05:02:51.026Z,1004.04
2022-09-23T05:03:51.005Z,1004.00
2022-09-23T05:04:50.993Z,1003.97
2022-09-23T05:05:51.001Z,1003.98
2022-09-23T05:06:50.961Z,1003.98
2022-09-23T05:07:51.004Z,1003.96
2022-09-23T05:08:50.926Z,1003.98
2022-09-23T05:09:50.912Z,1003.93
2022-09-23T05:10:50.923Z,1003.99
2022-09-23T05:11:50.908Z,1003.93
2022-09-23T05:12:55.009Z,1003.97
2022-09-23T05:13:50.846Z,1004.01
2022-09-23T05:14:50.826Z,1003.97
2022-09-23T05:15:50.829Z,1004.02
2022-09-23T05:16:50.854Z,1004.02
2022-09-23T05:17:50.784Z,1004.01
2022-09-23T05:18:50.775Z,1004.01
2022-09-23T05:19:50.745Z,1003.97
2022-09-23T05:20:50.732Z,1004.02
2022-09-23T05:21:50.710Z,1004.03
2022-09-23T05:22:50.726Z,1004.04
2022-09-23T05:23:50.678Z,1004.03
2022-09-23T05:24:50.668Z,1004.00
2022-09-23T05:25:50.647Z,1004.00
2022-09-23T05:26:50.678Z,1003.97
2022-09-23T05:27:50.614Z,1004.01
2022-09-23T05:28:50.599Z,1004.02
2022-09-23T05:29:50.635Z,1003.98
2022-09-23T05:30:50.566Z,1003.99
2022-09-23T05:31:50.590Z,1003.99
2022-09-23T05:32:50.585Z,1003.95
2022-09-23T05:33:50.638Z,1003.97
2022-09-23T05:34:50.505Z,1003.94
2022-09-23T05:35:50.483Z,1003.95
2022-09-23T05:36:50.473Z,1003.95
2022-09-23T05:37:50.548Z,1003.91
2022-09-23T05:38:50.440Z,1003.94
2022-09-23T05:39:50.418Z,1003.96
2022-09-23T05:40:50.471Z,1003.90
2022-09-23T05:41:50.381Z,1003.93
2022-09-23T05:42:50.370Z,1003.89
2022-09-23T05:43:50.354Z,1003.94
2022-09-23T05:44:50.336Z,1003.89
2022-09-23T05:45:50.318Z,1003.93
2022-09-23T05:46:50.351Z,1003.91
2022-09-23T05:47:50.286Z,1003.89
2022-09-23T05:48:50.277Z,1003.91
2022-09-23T05:49:59.755Z,1003.88
2022-09-23T05:50:50.238Z,1003.91
2022-09-23T05:51:50.228Z,1003.92
2022-09-23T05:52:50.203Z,1003.93
2022-09-23T05:53:50.213Z,1003.89
2022-09-23T05:54:50.169Z,1003.92
2022-09-23T05:55:50.235Z,1003.92
2022-09-23T05:56:50.140Z,1003.87
2022-09-23T05:57:50.146Z,1003.90
2022-09-23T05:58:50.116Z,1003.91
2022-09-23T05:59:50.089Z,1003.90
2022-09-23T06:00:50.073Z,1003.88
2022-09-23T06:01:52.141Z,1003.86
2022-09-23T06:02:50.227Z,1003.85
2022-09-23T06:03:50.031Z,1003.88
2022-09-23T06:04:50.042Z,1003.82
2022-09-23T06:05:49.988Z,1003.89
2022-09-23T06:06:49.972Z,1003.87
2022-09-23T06:07:50.103Z,1003.83
2022-09-23T06:08:50.000Z,1003.86
2022-09-23T06:09:49.927Z,1003.86
2022-09-23T06:10:54.440Z,1003.80
2022-09-23T06:11:49.891Z,1003.80
2022-09-23T06:12:49.878Z,1003.79
2022-09-23T06:13:49.861Z,1003.76
2022-09-23T06:14:49.902Z,1003.78
2022-09-23T06:15:49.857Z,1003.84
2022-09-23T06:16:49.816Z,1003.84
2022-09-23T06:17:49.799Z,1003.88
2022-09-23T06:18:49.789Z,1003.89
2022-09-23T06:19:49.758Z,1003.92
2022-09-23T06:20:49.755Z,1003.93
2022-09-23T06:21:49.728Z,1003.90
2022-09-23T06:22:53.388Z,1003.95
2022-09-23T06:23:51.734Z,1003.92
2022-09-23T06:24:49.683Z,1003.94
2022-09-23T06:25:49.689Z,1003.89
2022-09-23T06:26:49.663Z,1003.94
2022-09-23T06:27:49.701Z,1003.93
2022-09-23T06:28:49.613Z,1003.92
2022-09-23T06:29:49.595Z,1003.92
2022-09-23T06:30:49.582Z,1003.93
2022-09-23T06:31:49.676Z,1003.93
2022-09-23T06:32:49.584Z,1003.96
2022-09-23T06:33:49.949Z,1003.95
2022-09-23T06:34:52.059Z,1003.95
2022-09-23T06:35:57.627Z,1003.95
2022-09-23T06:36:49.507Z,1003.98
2022-09-23T06:37:49.464Z,1004.03
2022-09-23T06:38:49.503Z,1003.99
2022-09-23T06:39:49.432Z,1004.00
2022-09-23T06:40:49.512Z,1003.98
2022-09-23T06:41:49.398Z,1003.96
2022-09-23T06:42:52.386Z,1003.96
2022-09-23T06:43:49.365Z,1003.93
2022-09-23T06:44:49.378Z,1003.95
2022-09-23T06:45:49.335Z,1003.93
2022-09-23T06:46:49.373Z,1003.99
2022-09-23T06:47:49.364Z,1004.01
2022-09-23T06:48:49.292Z,1004.03
2022-09-23T06:49:49.290Z,1004.03
2022-09-23T06:50:49.256Z,1004.01
2022-09-23T06:51:49.237Z,1004.01
2022-09-23T06:52:49.228Z,1004.06
2022-09-23T06:53:49.212Z,1004.06
2022-09-23T06:54:49.191Z,1004.06
2022-09-23T06:55:49.188Z,1004.07
2022-09-23T06:56:49.159Z,1004.09
2022-09-23T06:57:49.141Z,1004.08
2022-09-23T06:58:49.153Z,1004.08
2022-09-23T06:59:49.123Z,1004.08
2022-09-23T07:00:49.096Z,1004.05
2022-09-23T07:01:49.178Z,1004.04
2022-09-23T07:02:49.261Z,1004.08
2022-09-23T07:03:49.071Z,1003.99
2022-09-23T07:04:49.030Z,1004.05
2022-09-23T07:05:49.012Z,1004.00
2022-09-23T07:06:49.065Z,1004.01
2022-09-23T07:07:48.979Z,1004.03
2022-09-23T07:08:48.965Z,1003.99
2022-09-23T07:09:48.959Z,1004.01
2022-09-23T07:10:48.935Z,1003.97
2022-09-23T07:12:03.615Z,1003.96
2022-09-23T07:12:48.902Z,1003.95
2022-09-23T07:13:48.883Z,1003.93
2022-09-23T07:14:48.875Z,1003.96
2022-09-23T07:15:48.884Z,1003.97
2022-09-23T07:16:48.920Z,1003.95
2022-09-23T07:17:48.827Z,1003.95
2022-09-23T07:18:48.804Z,1003.98
2022-09-23T07:19:48.819Z,1003.94
2022-09-23T07:20:48.771Z,1003.92
2022-09-23T07:21:48.752Z,1003.95
2022-09-23T07:22:48.738Z,1003.96
2022-09-23T07:23:48.722Z,1003.97
2022-09-23T07:24:48.745Z,1003.96
2022-09-23T07:25:48.700Z,1003.94
2022-09-23T07:26:48.674Z,1003.96
2022-09-23T07:27:48.657Z,1003.95
2022-09-23T07:28:48.640Z,1003.95
2022-09-23T07:29:49.031Z,1004.03
2022-09-23T07:30:58.368Z,1003.98
2022-09-23T07:31:48.618Z,1004.00
2022-09-23T07:32:49.364Z,1004.03
2022-09-23T07:33:48.564Z,1004.05
2022-09-23T07:34:48.544Z,1004.00
2022-09-23T07:35:48.568Z,1004.01
2022-09-23T07:36:48.544Z,1003.99
2022-09-23T07:37:48.539Z,1003.99
2022-09-23T07:38:48.486Z,1003.98
2022-09-23T07:39:48.467Z,1004.03
2022-09-23T07:40:48.540Z,1004.03
2022-09-23T07:41:48.436Z,1004.01
2022-09-23T07:42:48.422Z,1004.01
2022-09-23T07:43:48.400Z,1003.99
2022-09-23T07:44:48.387Z,1003.96
2022-09-23T07:45:48.432Z,1003.98
2022-09-23T07:46:48.436Z,1003.95
2022-09-23T07:47:48.336Z,1003.93
2022-09-23T07:48:48.325Z,1003.86
2022-09-23T07:49:48.304Z,1003.90
2022-09-23T07:50:48.293Z,1003.84
2022-09-23T07:51:48.303Z,1003.85
2022-09-23T07:52:48.263Z,1003.86
2022-09-23T07:53:48.251Z,1003.86
2022-09-23T07:54:48.234Z,1003.86
2022-09-23T07:55:48.214Z,1003.86
2022-09-23T07:56:48.250Z,1003.86
2022-09-23T07:57:48.179Z,1003.84
2022-09-23T07:58:48.167Z,1003.84
2022-09-23T07:59:48.147Z,1003.82
2022-09-23T08:00:48.132Z,1003.80
2022-09-23T08:01:48.215Z,1003.83
2022-09-23T08:02:52.731Z,1003.84
2022-09-23T08:03:48.087Z,1003.82
2022-09-23T08:04:48.155Z,1003.82
2022-09-23T08:05:48.051Z,1003.81
2022-09-23T08:06:48.051Z,1003.86
2022-09-23T08:07:48.032Z,1003.83
2022-09-23T08:08:52.546Z,1003.84
2022-09-23T08:09:47.989Z,1003.83
2022-09-23T08:10:47.973Z,1003.78
2022-09-23T08:11:47.989Z,1003.83
2022-09-23T08:12:47.974Z,1003.83
2022-09-23T08:13:47.942Z,1003.81
2022-09-23T08:14:47.924Z,1003.84
2022-09-23T08:15:50.904Z,1003.88
2022-09-23T08:16:47.879Z,1003.90
2022-09-23T08:17:47.868Z,1003.88
2022-09-23T08:18:47.850Z,1003.88
2022-09-23T08:19:47.872Z,1003.89
2022-09-23T08:20:48.202Z,1003.86
2022-09-23T08:21:47.799Z,1003.86
2022-09-23T08:22:47.784Z,1003.79
2022-09-23T08:23:47.770Z,1003.85
2022-09-23T08:24:47.766Z,1003.80
2022-09-23T08:25:47.769Z,1003.79
2022-09-23T08:26:47.726Z,1003.78
2022-09-23T08:27:47.707Z,1003.77
2022-09-23T08:28:47.728Z,1003.77
2022-09-23T08:29:47.677Z,1003.78
2022-09-23T08:30:47.737Z,1003.77
2022-09-23T08:31:47.645Z,1003.81
2022-09-23T08:32:47.628Z,1003.77
2022-09-23T08:33:47.615Z,1003.75
2022-09-23T08:34:47.622Z,1003.77
2022-09-23T08:35:47.586Z,1003.78
2022-09-23T08:36:47.612Z,1003.78
2022-09-23T08:37:47.553Z,1003.78
2022-09-23T08:38:47.535Z,1003.80
2022-09-23T08:39:47.524Z,1003.81
2022-09-23T08:40:47.590Z,1003.80
2022-09-23T08:41:47.503Z,1003.83
2022-09-23T08:42:47.734Z,1003.80
2022-09-23T08:43:47.566Z,1003.77
2022-09-23T08:44:47.454Z,1003.83
2022-09-23T08:45:47.434Z,1003.84
2022-09-23T08:46:47.410Z,1003.79
2022-09-23T08:47:47.396Z,1003.78
2022-09-23T08:48:47.380Z,1003.79
2022-09-23T08:49:47.376Z,1003.76
2022-09-23T08:50:47.360Z,1003.74
2022-09-23T08:51:47.334Z,1003.76
2022-09-23T08:52:47.321Z,1003.68
2022-09-23T08:53:47.306Z,1003.70
2022-09-23T08:54:49.855Z,1003.69
2022-09-23T08:55:47.306Z,1003.71
2022-09-23T08:56:47.284Z,1003.70
2022-09-23T08:58:02.298Z,1003.71
2022-09-23T08:58:47.229Z,1003.72
2022-09-23T08:59:47.215Z,1003.76
2022-09-23T09:00:47.260Z,1003.72
2022-09-23T09:01:47.217Z,1003.73
2022-09-23T09:02:47.289Z,1003.70
2022-09-23T09:03:47.156Z,1003.67
2022-09-23T09:04:47.167Z,1003.69
2022-09-23T09:05:53.882Z,1003.64
2022-09-23T09:06:53.456Z,1003.62
2022-09-23T09:07:47.119Z,1003.61
2022-09-23T09:08:47.080Z,1003.60
2022-09-23T09:09:47.072Z,1003.56
2022-09-23T09:10:47.048Z,1003.56
2022-09-23T09:11:48.692Z,1003.60
2022-09-23T09:12:47.023Z,1003.58
2022-09-23T09:13:47.009Z,1003.62
2022-09-23T09:14:46.989Z,1003.58
2022-09-23T09:15:46.998Z,1003.60
2022-09-23T09:17:00.979Z,1003.56
2022-09-23T09:17:47.106Z,1003.55
2022-09-23T09:18:46.933Z,1003.55
2022-09-23T09:19:46.927Z,1003.58
2022-09-23T09:20:46.906Z,1003.59
2022-09-23T09:21:46.887Z,1003.54
2022-09-23T09:22:46.870Z,1003.54
2022-09-23T09:23:47.934Z,1003.51
2022-09-23T09:24:46.913Z,1003.53
2022-09-23T09:25:46.880Z,1003.48
2022-09-23T09:26:46.824Z,1003.50
2022-09-23T09:27:46.817Z,1003.47
2022-09-23T09:28:46.787Z,1003.47
2022-09-23T09:29:49.575Z,1003.45
2022-09-23T09:30:48.663Z,1003.47
2022-09-23T09:31:46.749Z,1003.42
2022-09-23T09:32:46.731Z,1003.41
2022-09-23T09:33:46.766Z,1003.37
2022-09-23T09:34:46.702Z,1003.44
2022-09-23T09:35:46.685Z,1003.37
2022-09-23T09:36:46.670Z,1003.39
2022-09-23T09:37:46.668Z,1003.36
2022-09-23T09:38:46.642Z,1003.40
2022-09-23T09:39:46.654Z,1003.40
2022-09-23T09:40:46.694Z,1003.37
2022-09-23T09:41:46.603Z,1003.37
2022-09-23T09:42:46.611Z,1003.39
2022-09-23T09:43:46.628Z,1003.39
2022-09-23T09:44:46.556Z,1003.41
2022-09-23T09:45:46.555Z,1003.40
2022-09-23T09:46:46.586Z,1003.32
2022-09-23T09:47:46.517Z,1003.33
2022-09-23T09:48:46.499Z,1003.36
2022-09-23T09:49:46.524Z,1003.35
2022-09-23T09:50:46.498Z,1003.36
2022-09-23T09:51:46.459Z,1003.31
2022-09-23T09:52:46.393Z,1003.29
2022-09-23T09:53:46.387Z,1003.28
2022-09-23T09:54:46.388Z,1003.25
2022-09-23T09:55:46.349Z,1003.27
2022-09-23T09:57:46.350Z,1003.19
2022-09-23T09:58:46.308Z,1003.19
2022-09-23T09:59:46.321Z,1003.21
2022-09-23T10:00:46.280Z,1003.24
2022-09-23T10:01:46.327Z,1003.21
2022-09-23T10:02:46.248Z,1003.16
2022-09-23T10:03:46.241Z,1003.12
2022-09-23T10:04:46.287Z,1003.13
2022-09-23T10:05:46.260Z,1003.11
2022-09-23T10:06:46.194Z,1003.12
2022-09-23T10:07:46.228Z,1003.09
2022-09-23T10:08:46.171Z,1003.12
2022-09-23T10:09:46.173Z,1003.07
2022-09-23T10:10:46.181Z,1003.04
2022-09-23T10:11:46.131Z,1003.07
2022-09-23T10:12:46.116Z,1003.05
2022-09-23T10:13:46.100Z,1003.01
2022-09-23T10:14:46.085Z,1003.02
2022-09-23T10:15:46.123Z,1003.03
2022-09-23T10:16:46.075Z,1002.99
2022-09-23T10:17:46.045Z,1003.02
2022-09-23T10:18:46.033Z,1003.04
2022-09-23T10:19:46.020Z,1003.03
2022-09-23T10:20:46.049Z,1002.97
2022-09-23T10:21:45.997Z,1003.02
2022-09-23T10:22:45.978Z,1003.00
2022-09-23T10:23:45.966Z,1002.98
2022-09-23T10:24:45.955Z,1003.03
2022-09-23T10:25:45.939Z,1003.00
2022-09-23T10:26:45.930Z,1003.01
2022-09-23T10:27:45.912Z,1002.95
2022-09-23T10:28:45.904Z,1002.97
2022-09-23T10:29:45.890Z,1002.92
2022-09-23T10:30:45.953Z,1002.99
2022-09-23T10:31:45.862Z,1003.00
2022-09-23T10:32:45.852Z,1002.96
2022-09-23T10:33:45.837Z,1002.94
2022-09-23T10:34:45.846Z,1002.95
2022-09-23T10:35:45.814Z,1002.92
2022-09-23T10:36:45.831Z,1002.94
2022-09-23T10:37:45.796Z,1002.92
2022-09-23T10:38:45.770Z,1002.93
2022-09-23T10:39:45.762Z,1002.89
2022-09-23T10:40:45.934Z,1002.91
2022-09-23T10:41:45.739Z,1002.90
2022-09-23T10:42:45.729Z,1002.92
2022-09-23T10:43:45.719Z,1002.88
2022-09-23T10:44:45.708Z,1002.89
2022-09-23T10:45:45.746Z,1002.85
2022-09-23T10:46:45.676Z,1002.87
2022-09-23T10:47:45.693Z,1002.83
2022-09-23T10:48:45.656Z,1002.81
2022-09-23T10:49:45.665Z,1002.82
2022-09-23T10:50:45.628Z,1002.80
2022-09-23T10:51:45.609Z,1002.83
2022-09-23T10:52:45.596Z,1002.83
2022-09-23T10:53:45.589Z,1002.78
2022-09-23T10:54:45.572Z,1002.83
2022-09-23T10:55:45.585Z,1002.79
2022-09-23T10:56:45.545Z,1002.77
2022-09-23T10:57:45.539Z,1002.83
2022-09-23T10:58:45.548Z,1002.77
2022-09-23T10:59:45.509Z,1002.81
2022-09-23T11:00:45.647Z,1002.85
2022-09-23T11:01:45.551Z,1002.85
2022-09-23T11:02:45.470Z,1002.81
2022-09-23T11:03:45.480Z,1002.80
2022-09-23T11:04:45.501Z,1002.81
2022-09-23T11:05:45.439Z,1002.79
2022-09-23T11:06:45.445Z,1002.84
2022-09-23T11:07:45.408Z,1002.78
2022-09-23T11:08:45.395Z,1002.81
2022-09-23T11:09:45.561Z,1002.81
2022-09-23T11:10:46.611Z,1002.80
2022-09-23T11:11:45.359Z,1002.77
2022-09-23T11:12:45.354Z,1002.77
2022-09-23T11:13:45.363Z,1002.77
2022-09-23T11:14:45.326Z,1002.76
2022-09-23T11:15:45.349Z,1002.74
2022-09-23T11:16:45.349Z,1002.71
2022-09-23T11:17:45.314Z,1002.68
2022-09-23T11:18:45.276Z,1002.66
2022-09-23T11:19:45.773Z,1002.65
2022-09-23T11:20:45.248Z,1002.65
2022-09-23T11:21:45.237Z,1002.62
2022-09-23T11:22:45.263Z,1002.59
2022-09-23T11:23:45.214Z,1002.59
2022-09-23T11:24:45.203Z,1002.57
2022-09-23T11:25:45.186Z,1002.55
2022-09-23T11:26:45.186Z,1002.53
2022-09-23T11:27:45.163Z,1002.56
2022-09-23T11:28:45.182Z,1002.55
2022-09-23T11:29:45.147Z,1002.57
2022-09-23T11:30:45.224Z,1002.56
2022-09-23T11:31:45.116Z,1002.54
2022-09-23T11:32:45.105Z,1002.54
2022-09-23T11:33:45.091Z,1002.52
2022-09-23T11:34:45.136Z,1002.50
2022-09-23T11:35:45.070Z,1002.50
2022-09-23T11:36:45.047Z,1002.48
2022-09-23T11:37:45.037Z,1002.49
2022-09-23T11:38:45.036Z,1002.50
2022-09-23T11:39:45.026Z,1002.50
2022-09-23T11:40:46.496Z,1002.44
2022-09-23T11:41:44.992Z,1002.47
2022-09-23T11:42:44.980Z,1002.40
2022-09-23T11:43:45.085Z,1002.44
2022-09-23T11:44:44.979Z,1002.40
2022-09-23T11:45:44.993Z,1002.37
2022-09-23T11:46:44.928Z,1002.38
2022-09-23T11:47:44.918Z,1002.37
2022-09-23T11:48:44.903Z,1002.34
2022-09-23T11:49:44.895Z,1002.36
2022-09-23T11:50:44.880Z,1002.33
2022-09-23T11:51:44.866Z,1002.33
2022-09-23T11:52:44.854Z,1002.30
2022-09-23T11:53:44.842Z,1002.33
2022-09-23T11:54:44.825Z,1002.34
2022-09-23T11:55:55.160Z,1002.28
2022-09-23T11:56:48.106Z,1002.26
2022-09-23T11:57:49.385Z,1002.24
2022-09-23T11:58:48.721Z,1002.19
2022-09-23T11:59:44.794Z,1002.21
2022-09-23T12:00:49.131Z,1002.27
2022-09-23T12:01:45.758Z,1002.24
2022-09-23T12:02:48.428Z,1002.24
2022-09-23T12:03:45.315Z,1002.29
2022-09-23T12:04:54.637Z,1002.27
2022-09-23T12:05:44.841Z,1002.28
2022-09-23T12:06:44.683Z,1002.26